Walnut City, Iowa
Current Conditions -  °F | °C
As of 12:30 PM on Monday 22 Dec 2014 (Local Time) from KTVK Reporting Station
Overcast Overcast  
Wind Chill:   Ceiling: 300
Heat Index:   Visibility: 10mi
Dew Point:   Wind: 7mph
Humidity: 100%   Direction: 120°ESE
Pressure: 29.55"   Gusts: NA
Location:  40.8017°N, 92.9289°W
Report Text: KTVK 221830Z AUTO 12006KT 10SM OVC003 04/04 A2955 RMK AO2
Loading
Personal Weather Stations






























Interactive Weather Map New forecast layout! Learn more

10-Day Weather Forecast

Advertisements
Track Severe Weather on mobile